createdAt,value
2022-08-20T00:00:14.689Z,16.63
2022-08-20T00:01:14.692Z,16.56
2022-08-20T00:02:14.764Z,16.67
2022-08-20T00:03:14.639Z,16.58
2022-08-20T00:04:14.637Z,16.60
2022-08-20T00:05:14.621Z,16.50
2022-08-20T00:06:14.616Z,16.46
2022-08-20T00:07:14.635Z,16.53
2022-08-20T00:08:14.628Z,16.50
2022-08-20T00:09:14.571Z,16.43
2022-08-20T00:10:14.558Z,16.57
2022-08-20T00:11:14.562Z,16.56
2022-08-20T00:12:14.568Z,16.50
2022-08-20T00:13:16.785Z,16.53
2022-08-20T00:14:14.542Z,16.46
2022-08-20T00:15:14.512Z,16.52
2022-08-20T00:16:14.492Z,16.50
2022-08-20T00:17:14.492Z,16.48
2022-08-20T00:18:14.497Z,16.38
2022-08-20T00:19:14.509Z,16.43
2022-08-20T00:20:14.480Z,16.42
2022-08-20T00:21:18.857Z,16.53
2022-08-20T00:22:14.433Z,16.49
2022-08-20T00:23:14.426Z,16.58
2022-08-20T00:24:14.396Z,16.50
2022-08-20T00:25:14.389Z,16.52
2022-08-20T00:26:14.422Z,16.39
2022-08-20T00:27:14.364Z,16.43
2022-08-20T00:28:14.360Z,16.42
2022-08-20T00:29:14.372Z,16.35
2022-08-20T00:30:14.343Z,16.48
2022-08-20T00:31:14.343Z,16.45
2022-08-20T00:32:14.329Z,16.49
2022-08-20T00:33:14.309Z,16.39
2022-08-20T00:34:14.311Z,16.39
2022-08-20T00:35:14.274Z,16.24
2022-08-20T00:36:14.260Z,16.38
2022-08-20T00:37:14.253Z,16.27
2022-08-20T00:38:14.268Z,16.33
2022-08-20T00:39:14.248Z,16.30
2022-08-20T00:40:22.682Z,16.30
2022-08-20T00:41:15.204Z,16.39
2022-08-20T00:42:14.216Z,16.34
2022-08-20T00:43:14.196Z,16.31
2022-08-20T00:44:14.175Z,16.24
2022-08-20T00:45:14.185Z,16.28
2022-08-20T00:46:14.149Z,16.25
2022-08-20T00:47:14.136Z,16.35
2022-08-20T00:48:14.160Z,16.28
2022-08-20T00:49:14.143Z,16.23
2022-08-20T00:50:14.114Z,16.30
2022-08-20T00:51:14.150Z,16.30
2022-08-20T00:52:14.098Z,16.25
2022-08-20T00:53:14.071Z,16.30
2022-08-20T00:54:14.067Z,16.25
2022-08-20T00:55:14.081Z,16.28
2022-08-20T00:56:14.042Z,16.17
2022-08-20T00:57:14.022Z,16.15
2022-08-20T00:58:14.029Z,16.17
2022-08-20T00:59:13.998Z,16.17
2022-08-20T01:00:22.177Z,16.15
2022-08-20T01:01:13.985Z,16.17
2022-08-20T01:02:14.031Z,16.23
2022-08-20T01:03:13.990Z,16.28
2022-08-20T01:04:13.939Z,16.25
2022-08-20T01:05:13.935Z,16.24
2022-08-20T01:06:13.918Z,16.28
2022-08-20T01:07:13.940Z,16.24
2022-08-20T01:08:13.895Z,16.28
2022-08-20T01:09:13.893Z,16.21
2022-08-20T01:10:13.938Z,16.25
2022-08-20T01:11:14.900Z,16.27
2022-08-20T01:12:13.860Z,16.24
2022-08-20T01:13:13.853Z,16.20
2022-08-20T01:14:13.831Z,16.15
2022-08-20T01:15:13.822Z,16.15
2022-08-20T01:16:13.805Z,16.14
2022-08-20T01:17:13.825Z,16.20
2022-08-20T01:18:13.797Z,16.15
2022-08-20T01:19:29.995Z,16.27
2022-08-20T01:20:14.755Z,16.15
2022-08-20T01:21:13.751Z,16.20
2022-08-20T01:22:13.746Z,16.15
2022-08-20T01:23:13.763Z,16.15
2022-08-20T01:24:13.722Z,16.23
2022-08-20T01:25:13.702Z,16.20
2022-08-20T01:26:13.690Z,16.20
2022-08-20T01:27:13.683Z,16.20
2022-08-20T01:28:13.670Z,16.20
2022-08-20T01:29:13.694Z,16.21
2022-08-20T01:30:13.669Z,16.17
2022-08-20T01:31:13.632Z,16.15
2022-08-20T01:32:13.620Z,16.23
2022-08-20T01:33:13.621Z,16.17
2022-08-20T01:34:13.656Z,16.24
2022-08-20T01:35:13.594Z,16.17
2022-08-20T01:36:13.603Z,16.25
2022-08-20T01:37:13.564Z,16.27
2022-08-20T01:38:13.555Z,16.23
2022-08-20T01:39:13.568Z,16.23
2022-08-20T01:40:13.592Z,16.33
2022-08-20T01:41:13.547Z,16.31
2022-08-20T01:42:13.510Z,16.35
2022-08-20T01:43:13.495Z,16.27
2022-08-20T01:44:16.000Z,16.31
2022-08-20T01:45:13.473Z,16.30
2022-08-20T01:46:13.487Z,16.33
2022-08-20T01:47:15.192Z,16.30
2022-08-20T01:48:13.437Z,16.35
2022-08-20T01:49:15.667Z,16.27
2022-08-20T01:50:14.428Z,16.27
2022-08-20T01:51:13.414Z,16.27
2022-08-20T01:52:13.421Z,16.30
2022-08-20T01:53:13.389Z,16.30
2022-08-20T01:54:13.372Z,16.31
2022-08-20T01:55:13.362Z,16.28
2022-08-20T01:56:13.346Z,16.38
2022-08-20T01:57:13.352Z,16.34
2022-08-20T01:58:13.366Z,16.27
2022-08-20T01:59:13.315Z,16.28
2022-08-20T02:00:19.764Z,16.28
2022-08-20T02:01:14.349Z,16.39
2022-08-20T02:02:13.283Z,16.31
2022-08-20T02:03:13.280Z,16.30
2022-08-20T02:04:15.322Z,16.39
2022-08-20T02:05:13.290Z,16.31
2022-08-20T02:06:13.232Z,16.41
2022-08-20T02:07:13.224Z,16.30
2022-08-20T02:08:13.222Z,16.41
2022-08-20T02:09:16.031Z,16.42
2022-08-20T02:10:13.196Z,16.30
2022-08-20T02:11:13.203Z,16.38
2022-08-20T02:12:13.173Z,16.33
2022-08-20T02:13:13.154Z,16.42
2022-08-20T02:14:13.149Z,16.34
2022-08-20T02:15:13.171Z,16.33
2022-08-20T02:16:13.125Z,16.33
2022-08-20T02:17:13.114Z,16.31
2022-08-20T02:18:13.111Z,16.42
2022-08-20T02:19:13.094Z,16.35
2022-08-20T02:20:13.101Z,16.30
2022-08-20T02:21:13.063Z,16.42
2022-08-20T02:22:13.054Z,16.35
2022-08-20T02:23:13.045Z,16.31
2022-08-20T02:24:13.025Z,16.42
2022-08-20T02:25:13.027Z,16.34
2022-08-20T02:26:13.040Z,16.38
2022-08-20T02:27:12.991Z,16.42
2022-08-20T02:28:12.982Z,16.34
2022-08-20T02:29:12.983Z,16.49
2022-08-20T02:30:21.119Z,16.45
2022-08-20T02:31:13.990Z,16.35
2022-08-20T02:32:24.375Z,16.35
2022-08-20T02:33:13.971Z,16.38
2022-08-20T02:34:21.847Z,16.46
2022-08-20T02:35:13.922Z,16.46
2022-08-20T02:36:12.907Z,16.42
2022-08-20T02:37:12.878Z,16.46
2022-08-20T02:38:12.886Z,16.48
2022-08-20T02:39:12.938Z,16.46
2022-08-20T02:40:12.873Z,16.53
2022-08-20T02:41:12.837Z,16.34
2022-08-20T02:42:12.841Z,16.39
2022-08-20T02:43:12.841Z,16.43
2022-08-20T02:44:12.823Z,16.43
2022-08-20T02:45:13.129Z,16.43
2022-08-20T02:46:13.802Z,16.42
2022-08-20T02:47:12.802Z,16.39
2022-08-20T02:48:12.783Z,16.39
2022-08-20T02:49:12.746Z,16.35
2022-08-20T02:50:12.735Z,16.39
2022-08-20T02:51:12.767Z,16.46
2022-08-20T02:52:12.712Z,16.48
2022-08-20T02:53:12.704Z,16.38
2022-08-20T02:54:12.686Z,16.39
2022-08-20T02:55:23.133Z,16.46
2022-08-20T02:56:13.668Z,16.35
2022-08-20T02:57:12.669Z,16.45
2022-08-20T02:58:12.684Z,16.46
2022-08-20T02:59:19.038Z,16.41
2022-08-20T03:00:13.617Z,16.50
2022-08-20T03:01:12.678Z,16.49
2022-08-20T03:02:12.603Z,16.46
2022-08-20T03:03:12.617Z,16.49
2022-08-20T03:04:12.611Z,16.53
2022-08-20T03:05:12.560Z,16.49
2022-08-20T03:06:12.668Z,16.56
2022-08-20T03:07:12.537Z,16.49
2022-08-20T03:08:12.542Z,16.50
2022-08-20T03:09:12.552Z,16.57
2022-08-20T03:10:12.514Z,16.52
2022-08-20T03:11:12.533Z,16.56
2022-08-20T03:12:12.599Z,16.50
2022-08-20T03:13:12.560Z,16.46
2022-08-20T03:14:12.518Z,16.56
2022-08-20T03:15:17.665Z,16.56
2022-08-20T03:16:13.435Z,16.52
2022-08-20T03:17:12.427Z,16.50
2022-08-20T03:18:12.436Z,16.48
2022-08-20T03:19:12.407Z,16.58
2022-08-20T03:20:12.393Z,16.52
2022-08-20T03:21:14.850Z,16.61
2022-08-20T03:22:12.372Z,16.61
2022-08-20T03:23:12.377Z,16.64
2022-08-20T03:24:12.345Z,16.63
2022-08-20T03:25:12.350Z,16.56
2022-08-20T03:26:12.330Z,16.60
2022-08-20T03:27:12.323Z,16.49
2022-08-20T03:28:12.309Z,16.56
2022-08-20T03:29:12.329Z,16.46
2022-08-20T03:30:12.283Z,16.56
2022-08-20T03:31:12.628Z,16.56
2022-08-20T03:32:12.269Z,16.64
2022-08-20T03:33:12.246Z,16.58
2022-08-20T03:34:12.243Z,16.50
2022-08-20T03:35:12.231Z,16.57
2022-08-20T03:36:12.239Z,16.50
2022-08-20T03:37:12.202Z,16.50
2022-08-20T03:38:12.196Z,16.48
2022-08-20T03:39:12.173Z,16.53
2022-08-20T03:40:12.206Z,16.58
2022-08-20T03:41:12.196Z,16.52
2022-08-20T03:42:12.149Z,16.56
2022-08-20T03:43:12.142Z,16.46
2022-08-20T03:44:12.141Z,16.61
2022-08-20T03:45:12.117Z,16.56
2022-08-20T03:46:22.864Z,16.52
2022-08-20T03:47:13.118Z,16.50
2022-08-20T03:48:12.074Z,16.48
2022-08-20T03:49:12.070Z,16.50
2022-08-20T03:50:14.740Z,16.58
2022-08-20T03:51:13.080Z,16.56
2022-08-20T03:52:12.065Z,16.53
2022-08-20T03:53:12.299Z,16.49
2022-08-20T03:54:12.017Z,16.52
2022-08-20T03:55:12.005Z,16.48
2022-08-20T03:56:11.988Z,16.67
2022-08-20T03:57:12.870Z,16.50
2022-08-20T03:58:11.964Z,16.63
2022-08-20T03:59:11.948Z,16.68
2022-08-20T04:00:11.957Z,16.61
2022-08-20T04:01:37.069Z,16.64
2022-08-20T04:02:12.996Z,16.68
2022-08-20T04:03:11.897Z,16.63
2022-08-20T04:04:12.534Z,16.73
2022-08-20T04:05:11.884Z,16.64
2022-08-20T04:06:11.899Z,16.61
2022-08-20T04:07:11.859Z,16.64
2022-08-20T04:08:11.858Z,16.64
2022-08-20T04:09:12.399Z,16.60
2022-08-20T04:10:11.873Z,16.70
2022-08-20T04:11:11.825Z,16.66
2022-08-20T04:12:11.836Z,16.67
2022-08-20T04:13:11.798Z,16.66
2022-08-20T04:14:11.805Z,16.67
2022-08-20T04:15:12.817Z,16.75
2022-08-20T04:16:13.464Z,16.64
2022-08-20T04:17:11.762Z,16.73
2022-08-20T04:18:11.771Z,16.61
2022-08-20T04:19:11.714Z,16.66
2022-08-20T04:20:11.704Z,16.64
2022-08-20T04:21:11.696Z,16.68
2022-08-20T04:22:11.720Z,16.67
2022-08-20T04:23:11.669Z,16.73
2022-08-20T04:24:24.549Z,16.76
2022-08-20T04:25:15.867Z,16.71
2022-08-20T04:26:11.672Z,16.83
2022-08-20T04:27:11.627Z,16.82
2022-08-20T04:28:11.626Z,16.89
2022-08-20T04:29:11.602Z,16.91
2022-08-20T04:30:11.591Z,16.79
2022-08-20T04:31:11.577Z,16.79
2022-08-20T04:32:11.602Z,16.78
2022-08-20T04:33:11.597Z,16.85
2022-08-20T04:34:11.573Z,16.78
2022-08-20T04:35:11.541Z,16.76
2022-08-20T04:36:11.522Z,16.78
2022-08-20T04:37:16.731Z,16.88
2022-08-20T04:38:12.520Z,16.88
2022-08-20T04:39:11.522Z,16.78
2022-08-20T04:40:11.575Z,16.91
2022-08-20T04:41:11.496Z,16.85
2022-08-20T04:42:12.451Z,16.94
2022-08-20T04:43:12.337Z,16.91
2022-08-20T04:44:11.438Z,16.98
2022-08-20T04:45:11.437Z,16.93
2022-08-20T04:46:11.449Z,17.00
2022-08-20T04:47:11.394Z,17.01
2022-08-20T04:48:15.045Z,16.91
2022-08-20T04:49:11.371Z,17.03
2022-08-20T04:50:11.377Z,17.03
2022-08-20T04:51:11.348Z,17.03
2022-08-20T04:52:11.384Z,17.04
2022-08-20T04:53:11.325Z,17.08
2022-08-20T04:54:11.331Z,16.98
2022-08-20T04:55:11.317Z,17.01
2022-08-20T04:56:11.316Z,16.89
2022-08-20T04:57:11.323Z,17.03
2022-08-20T04:58:11.277Z,17.00
2022-08-20T04:59:11.297Z,17.04
2022-08-20T05:00:11.247Z,17.03
2022-08-20T05:01:11.278Z,17.06
2022-08-20T05:02:11.242Z,17.03
2022-08-20T05:03:11.222Z,17.01
2022-08-20T05:04:11.232Z,17.07
2022-08-20T05:05:11.202Z,17.06
2022-08-20T05:06:11.233Z,17.04
2022-08-20T05:07:11.209Z,17.15
2022-08-20T05:08:19.869Z,17.12
2022-08-20T05:09:12.149Z,17.12
2022-08-20T05:10:11.162Z,17.03
2022-08-20T05:11:33.060Z,17.08
2022-08-20T05:12:12.109Z,17.06
2022-08-20T05:13:11.113Z,17.14
2022-08-20T05:14:11.143Z,17.19
2022-08-20T05:15:11.078Z,17.19
2022-08-20T05:16:11.153Z,17.15
2022-08-20T05:17:11.102Z,17.23
2022-08-20T05:18:11.087Z,17.18
2022-08-20T05:19:11.029Z,17.18
2022-08-20T05:20:11.032Z,17.22
2022-08-20T05:21:11.007Z,17.15
2022-08-20T05:22:11.013Z,17.15
2022-08-20T05:23:10.993Z,17.21
2022-08-20T05:24:11.001Z,17.26
2022-08-20T05:25:10.964Z,17.22
2022-08-20T05:26:10.975Z,17.15
2022-08-20T05:27:11.055Z,17.19
2022-08-20T05:28:11.947Z,17.25
2022-08-20T05:29:10.936Z,17.28
2022-08-20T05:30:11.769Z,17.23
2022-08-20T05:31:10.906Z,17.22
2022-08-20T05:32:10.889Z,17.25
2022-08-20T05:33:10.879Z,17.30
2022-08-20T05:34:11.715Z,17.19
2022-08-20T05:35:10.858Z,17.18
2022-08-20T05:36:10.878Z,17.18
2022-08-20T05:37:10.848Z,17.15
2022-08-20T05:38:10.812Z,17.07
2022-08-20T05:39:10.824Z,17.08
2022-08-20T05:40:10.900Z,17.11
2022-08-20T05:41:10.805Z,17.14
2022-08-20T05:42:10.775Z,17.15
2022-08-20T05:43:10.786Z,17.15
2022-08-20T05:44:10.905Z,17.18
2022-08-20T05:45:11.139Z,17.16
2022-08-20T05:46:10.741Z,17.14
2022-08-20T05:47:10.710Z,17.04
2022-08-20T05:48:10.715Z,17.07
2022-08-20T05:49:10.722Z,17.16
2022-08-20T05:50:10.772Z,17.14
2022-08-20T05:51:15.096Z,17.14
2022-08-20T05:52:10.676Z,17.11
2022-08-20T05:53:10.647Z,17.15
2022-08-20T05:54:10.656Z,17.11
2022-08-20T05:55:10.659Z,17.07
2022-08-20T05:56:10.611Z,17.04
2022-08-20T05:57:10.615Z,17.11
2022-08-20T05:58:10.588Z,17.14
2022-08-20T05:59:10.589Z,17.15
2022-08-20T06:00:10.587Z,17.16
2022-08-20T06:01:10.622Z,17.21
2022-08-20T06:02:10.552Z,17.23
2022-08-20T06:03:10.554Z,17.22
2022-08-20T06:04:10.519Z,17.22
2022-08-20T06:05:10.522Z,17.23
2022-08-20T06:06:18.059Z,17.25
2022-08-20T06:07:11.550Z,17.16
2022-08-20T06:08:10.485Z,17.21
2022-08-20T06:09:10.483Z,17.22
2022-08-20T06:10:10.455Z,17.25
2022-08-20T06:11:10.535Z,17.25
2022-08-20T06:12:10.439Z,17.25
2022-08-20T06:13:10.417Z,17.26
2022-08-20T06:14:10.448Z,17.26
2022-08-20T06:15:10.395Z,17.34
2022-08-20T06:16:10.394Z,17.37
2022-08-20T06:17:10.401Z,17.28
2022-08-20T06:18:13.013Z,17.37
2022-08-20T06:19:11.548Z,17.30
2022-08-20T06:20:10.363Z,17.33
2022-08-20T06:21:10.326Z,17.30
2022-08-20T06:22:20.826Z,17.33
2022-08-20T06:23:11.313Z,17.30
2022-08-20T06:24:10.293Z,17.33
2022-08-20T06:25:10.303Z,17.23
2022-08-20T06:26:10.315Z,17.31
2022-08-20T06:27:10.307Z,17.23
2022-08-20T06:28:10.257Z,17.30
2022-08-20T06:29:10.257Z,17.33
2022-08-20T06:30:10.229Z,17.37
2022-08-20T06:31:10.221Z,17.31
2022-08-20T06:32:10.205Z,17.33
2022-08-20T06:33:10.207Z,17.40
2022-08-20T06:34:10.211Z,17.38
2022-08-20T06:35:10.182Z,17.36
2022-08-20T06:36:10.169Z,17.38
2022-08-20T06:37:10.160Z,17.31
2022-08-20T06:38:10.136Z,17.31
2022-08-20T06:39:10.144Z,17.38
2022-08-20T06:40:10.269Z,17.37
2022-08-20T06:41:10.102Z,17.36
2022-08-20T06:42:10.099Z,17.38
2022-08-20T06:43:10.129Z,17.40
2022-08-20T06:44:10.114Z,17.41
2022-08-20T06:45:10.083Z,17.40
2022-08-20T06:46:10.056Z,17.37
2022-08-20T06:47:10.039Z,17.54
2022-08-20T06:48:10.036Z,17.37
2022-08-20T06:49:11.086Z,17.37
2022-08-20T06:50:10.001Z,17.36
2022-08-20T06:51:10.020Z,17.34
2022-08-20T06:52:09.974Z,17.41
2022-08-20T06:53:10.006Z,17.38
2022-08-20T06:54:09.953Z,17.37
2022-08-20T06:55:09.947Z,17.36
2022-08-20T06:56:09.927Z,17.46
2022-08-20T06:57:09.928Z,17.38
2022-08-20T06:58:30.492Z,17.38
2022-08-20T06:59:10.929Z,17.37
2022-08-20T07:00:09.883Z,17.36
2022-08-20T07:01:11.034Z,17.44
2022-08-20T07:02:09.862Z,17.36
2022-08-20T07:03:09.880Z,17.41
2022-08-20T07:04:09.956Z,17.36
2022-08-20T07:05:09.848Z,17.43
2022-08-20T07:06:09.817Z,17.51
2022-08-20T07:07:09.808Z,17.52
2022-08-20T07:08:09.801Z,17.54
2022-08-20T07:09:09.782Z,17.51
2022-08-20T07:10:09.790Z,17.58
2022-08-20T07:11:09.760Z,17.49
2022-08-20T07:12:09.789Z,17.52
2022-08-20T07:13:09.755Z,17.62
2022-08-20T07:14:09.745Z,17.59
2022-08-20T07:15:09.721Z,17.62
2022-08-20T07:16:09.713Z,17.58
2022-08-20T07:17:11.376Z,17.64
2022-08-20T07:18:09.701Z,17.70
2022-08-20T07:19:09.670Z,17.59
2022-08-20T07:20:09.660Z,17.64
2022-08-20T07:21:09.686Z,17.72
2022-08-20T07:22:09.652Z,17.74
2022-08-20T07:23:09.626Z,17.71
2022-08-20T07:24:09.610Z,17.70
2022-08-20T07:25:09.609Z,17.71
2022-08-20T07:26:09.628Z,17.75
2022-08-20T07:27:09.595Z,17.77
2022-08-20T07:28:09.608Z,17.81
2022-08-20T07:29:09.569Z,17.84
2022-08-20T07:30:12.923Z,17.89
2022-08-20T07:31:13.785Z,17.90
2022-08-20T07:32:10.519Z,17.90
2022-08-20T07:33:09.524Z,17.87
2022-08-20T07:34:09.547Z,17.84
2022-08-20T07:35:09.494Z,17.86
2022-08-20T07:36:09.483Z,17.84
2022-08-20T07:37:09.466Z,17.84
2022-08-20T07:38:09.475Z,17.82
2022-08-20T07:39:09.489Z,17.79
2022-08-20T07:40:09.552Z,17.77
2022-08-20T07:41:09.423Z,17.77
2022-08-20T07:42:09.804Z,17.89
2022-08-20T07:43:09.402Z,17.89
2022-08-20T07:44:09.407Z,17.86
2022-08-20T07:45:09.379Z,17.89
2022-08-20T07:46:09.385Z,17.82
2022-08-20T07:47:09.370Z,17.79
2022-08-20T07:48:09.359Z,17.84
2022-08-20T07:49:09.341Z,17.77
2022-08-20T07:50:09.340Z,17.82
2022-08-20T07:51:09.348Z,17.74
2022-08-20T07:52:09.329Z,17.77
2022-08-20T07:53:09.297Z,17.77
2022-08-20T07:54:09.274Z,17.90
2022-08-20T07:55:09.272Z,17.75
2022-08-20T07:56:09.249Z,17.79
2022-08-20T07:57:09.255Z,17.82
2022-08-20T07:58:09.257Z,17.78
2022-08-20T07:59:09.247Z,17.77
2022-08-20T08:00:09.213Z,17.78
2022-08-20T08:01:09.267Z,17.77
2022-08-20T08:02:09.182Z,17.79
2022-08-20T08:03:09.173Z,17.70
2022-08-20T08:04:09.196Z,17.72
2022-08-20T08:05:09.154Z,17.75
2022-08-20T08:06:09.155Z,17.77
2022-08-20T08:07:09.171Z,17.70
2022-08-20T08:08:09.131Z,17.66
2022-08-20T08:09:09.128Z,17.74
2022-08-20T08:10:09.147Z,17.63
2022-08-20T08:11:09.124Z,17.75
2022-08-20T08:12:09.095Z,17.75
2022-08-20T08:13:09.061Z,17.71
2022-08-20T08:14:09.094Z,17.64
2022-08-20T08:15:09.041Z,17.72
2022-08-20T08:16:09.066Z,17.75
2022-08-20T08:17:09.028Z,17.70
2022-08-20T08:18:09.023Z,17.71
2022-08-20T08:19:09.039Z,17.68
2022-08-20T08:20:08.994Z,17.59
2022-08-20T08:21:08.975Z,17.59
2022-08-20T08:22:08.956Z,17.64
2022-08-20T08:23:08.963Z,17.63
2022-08-20T08:24:09.988Z,17.66
2022-08-20T08:25:08.927Z,17.59
2022-08-20T08:26:08.918Z,17.62
2022-08-20T08:27:09.911Z,17.56
2022-08-20T08:28:08.896Z,17.62
2022-08-20T08:29:08.901Z,17.52
2022-08-20T08:30:08.938Z,17.46
2022-08-20T08:31:08.859Z,17.52
2022-08-20T08:32:08.846Z,17.59
2022-08-20T08:33:08.894Z,17.55
2022-08-20T08:34:08.834Z,17.44
2022-08-20T08:35:08.831Z,17.54
2022-08-20T08:36:08.862Z,17.46
2022-08-20T08:37:08.796Z,17.48
2022-08-20T08:38:08.787Z,17.55
2022-08-20T08:39:09.783Z,17.46
2022-08-20T08:40:08.871Z,17.43
2022-08-20T08:41:08.747Z,17.54
2022-08-20T08:42:08.729Z,17.58
2022-08-20T08:43:09.719Z,17.51
2022-08-20T08:44:08.722Z,17.52
2022-08-20T08:45:08.705Z,17.49
2022-08-20T08:46:08.713Z,17.56
2022-08-20T08:47:08.675Z,17.52
2022-08-20T08:48:08.678Z,17.48
2022-08-20T08:49:08.655Z,17.55
2022-08-20T08:50:08.671Z,17.56
2022-08-20T08:51:08.681Z,17.58
2022-08-20T08:52:08.615Z,17.52
2022-08-20T08:53:08.614Z,17.51
2022-08-20T08:54:08.606Z,17.52
2022-08-20T08:55:08.600Z,17.54
2022-08-20T08:56:08.582Z,17.62
2022-08-20T08:57:08.584Z,17.59
2022-08-20T08:58:16.698Z,17.68
2022-08-20T08:59:09.544Z,17.70
2022-08-20T09:00:08.525Z,17.56
2022-08-20T09:01:13.877Z,17.71
2022-08-20T09:02:09.573Z,17.71
2022-08-20T09:03:08.517Z,17.81
2022-08-20T09:04:08.482Z,17.75
2022-08-20T09:05:08.470Z,17.71
2022-08-20T09:06:08.465Z,17.68
2022-08-20T09:07:08.488Z,17.77
2022-08-20T09:08:08.442Z,17.71
2022-08-20T09:09:08.428Z,17.71
2022-08-20T09:10:08.414Z,17.79
2022-08-20T09:11:08.442Z,17.72
2022-08-20T09:12:08.421Z,17.72
2022-08-20T09:13:08.406Z,17.72
2022-08-20T09:14:08.391Z,17.72
2022-08-20T09:15:08.359Z,17.72
2022-08-20T09:16:08.354Z,17.68
2022-08-20T09:17:08.371Z,17.75
2022-08-20T09:18:08.321Z,17.71
2022-08-20T09:19:08.337Z,17.72
2022-08-20T09:20:08.303Z,17.75
2022-08-20T09:21:08.305Z,17.78
2022-08-20T09:22:08.320Z,17.78
2022-08-20T09:23:08.300Z,17.78
2022-08-20T09:24:08.261Z,17.82
2022-08-20T09:25:08.306Z,17.84
2022-08-20T09:26:08.231Z,17.86
2022-08-20T09:27:08.239Z,17.93
2022-08-20T09:28:08.303Z,17.90
2022-08-20T09:29:08.211Z,17.95
2022-08-20T09:30:08.209Z,17.89
2022-08-20T09:31:08.196Z,17.92
2022-08-20T09:32:08.166Z,17.87
2022-08-20T09:33:08.179Z,17.87
2022-08-20T09:34:08.854Z,17.93
2022-08-20T09:35:09.572Z,17.86
2022-08-20T09:36:31.710Z,17.86
2022-08-20T09:37:09.156Z,17.90
2022-08-20T09:38:08.098Z,17.90
2022-08-20T09:39:08.100Z,17.86
2022-08-20T09:40:08.186Z,17.84
2022-08-20T09:41:08.098Z,17.86
2022-08-20T09:42:08.078Z,17.77
2022-08-20T09:43:08.042Z,17.79
2022-08-20T09:44:08.033Z,17.72
2022-08-20T09:45:10.866Z,17.78
2022-08-20T09:46:08.045Z,17.74
2022-08-20T09:47:08.009Z,17.79
2022-08-20T09:48:10.259Z,17.81
2022-08-20T09:49:09.438Z,17.81
2022-08-20T09:50:08.027Z,17.84
2022-08-20T09:51:07.975Z,17.78
2022-08-20T09:52:07.941Z,17.82
2022-08-20T09:53:07.954Z,17.82
2022-08-20T09:54:07.971Z,17.86
2022-08-20T09:55:07.910Z,17.77
2022-08-20T09:56:07.922Z,17.79
2022-08-20T09:57:08.015Z,17.78
2022-08-20T09:58:07.880Z,17.81
2022-08-20T09:59:07.879Z,17.79
2022-08-20T10:00:07.899Z,17.87
2022-08-20T10:01:07.900Z,17.87
2022-08-20T10:02:08.851Z,17.92
2022-08-20T10:03:07.902Z,17.96
2022-08-20T10:04:07.821Z,18.00
2022-08-20T10:05:07.817Z,17.90
2022-08-20T10:06:07.783Z,17.95
2022-08-20T10:07:07.794Z,17.87
2022-08-20T10:08:07.774Z,17.79
2022-08-20T10:09:07.752Z,17.89
2022-08-20T10:10:07.816Z,17.87
2022-08-20T10:11:07.766Z,17.84
2022-08-20T10:12:07.726Z,17.87
2022-08-20T10:13:07.706Z,17.87
2022-08-20T10:14:07.732Z,17.92
2022-08-20T10:15:07.696Z,18.02
2022-08-20T10:16:07.706Z,18.10
2022-08-20T10:17:07.659Z,18.03
2022-08-20T10:18:07.726Z,18.02
2022-08-20T10:19:07.651Z,18.05
2022-08-20T10:20:07.623Z,18.02
2022-08-20T10:21:07.629Z,18.05
2022-08-20T10:22:07.602Z,18.03
2022-08-20T10:23:07.596Z,18.10
2022-08-20T10:24:07.602Z,17.99
2022-08-20T10:25:07.626Z,18.12
2022-08-20T10:26:07.561Z,18.08
2022-08-20T10:27:07.563Z,18.21
2022-08-20T10:28:07.534Z,18.12
2022-08-20T10:29:07.568Z,18.20
2022-08-20T10:30:07.546Z,18.18
2022-08-20T10:31:07.989Z,18.12
2022-08-20T10:32:07.504Z,18.07
2022-08-20T10:33:07.500Z,18.14
2022-08-20T10:34:07.507Z,18.15
2022-08-20T10:35:07.478Z,18.25
2022-08-20T10:36:07.489Z,18.14
2022-08-20T10:37:07.477Z,18.17
2022-08-20T10:38:07.439Z,18.30
2022-08-20T10:39:07.413Z,18.14
2022-08-20T10:40:07.453Z,18.18
2022-08-20T10:41:07.408Z,18.29
2022-08-20T10:42:07.407Z,18.18
2022-08-20T10:43:07.376Z,18.26
2022-08-20T10:44:07.377Z,18.14
2022-08-20T10:45:07.345Z,18.21
2022-08-20T10:46:07.354Z,18.27
2022-08-20T10:47:07.344Z,18.30
2022-08-20T10:48:07.312Z,18.32
2022-08-20T10:49:07.343Z,18.33
2022-08-20T10:50:07.315Z,18.26
2022-08-20T10:51:07.312Z,18.36
2022-08-20T10:52:07.264Z,18.35
2022-08-20T10:53:07.266Z,18.37
2022-08-20T10:54:12.222Z,18.36
2022-08-20T10:55:08.266Z,18.41
2022-08-20T10:56:07.249Z,18.48
2022-08-20T10:57:07.211Z,18.41
2022-08-20T10:58:07.221Z,18.50
2022-08-20T10:59:07.210Z,18.47
2022-08-20T11:00:07.219Z,18.54
2022-08-20T11:01:31.462Z,18.60
2022-08-20T11:02:08.204Z,18.57
2022-08-20T11:03:07.144Z,18.63
2022-08-20T11:04:07.133Z,18.62
2022-08-20T11:05:07.122Z,18.65
2022-08-20T11:06:07.126Z,18.66
2022-08-20T11:07:07.096Z,18.67
2022-08-20T11:08:07.090Z,18.67
2022-08-20T11:09:09.303Z,18.65
2022-08-20T11:10:11.796Z,18.75
2022-08-20T11:11:08.079Z,18.63
2022-08-20T11:12:07.058Z,18.72
2022-08-20T11:13:07.034Z,18.75
2022-08-20T11:14:07.018Z,18.73
2022-08-20T11:15:07.012Z,18.81
2022-08-20T11:16:07.014Z,18.76
2022-08-20T11:17:07.022Z,18.80
2022-08-20T11:18:06.993Z,18.82
2022-08-20T11:19:06.964Z,18.81
2022-08-20T11:20:06.963Z,18.88
2022-08-20T11:21:06.959Z,18.90
2022-08-20T11:22:06.929Z,18.90
2022-08-20T11:23:06.925Z,18.91
2022-08-20T11:24:06.943Z,18.90
2022-08-20T11:25:06.910Z,19.04
2022-08-20T11:26:06.884Z,19.06
2022-08-20T11:27:06.891Z,19.06
2022-08-20T11:28:06.922Z,19.04
2022-08-20T11:29:06.869Z,18.99
2022-08-20T11:30:06.869Z,19.06
2022-08-20T11:31:06.830Z,19.06
2022-08-20T11:32:06.844Z,19.04
2022-08-20T11:33:06.839Z,19.11
2022-08-20T11:34:12.076Z,19.13
2022-08-20T11:35:24.947Z,19.14
2022-08-20T11:36:07.772Z,19.11
2022-08-20T11:37:06.769Z,19.10
2022-08-20T11:38:06.758Z,19.11
2022-08-20T11:39:06.766Z,19.19
2022-08-20T11:40:06.765Z,19.22
2022-08-20T11:41:06.751Z,19.26
2022-08-20T11:42:06.757Z,19.33
2022-08-20T11:43:15.466Z,19.36
2022-08-20T11:44:21.241Z,19.37
2022-08-20T11:45:07.666Z,19.32
2022-08-20T11:46:06.678Z,19.37
2022-08-20T11:47:06.649Z,19.37
2022-08-20T11:48:06.642Z,19.46
2022-08-20T11:49:07.358Z,19.36
2022-08-20T11:50:06.642Z,19.43
2022-08-20T11:51:06.616Z,19.39
2022-08-20T11:52:06.620Z,19.40
2022-08-20T11:53:07.925Z,19.54
2022-08-20T11:54:06.588Z,19.46
2022-08-20T11:55:06.593Z,19.44
2022-08-20T11:56:06.546Z,19.43
2022-08-20T11:57:06.579Z,19.48
2022-08-20T11:58:06.530Z,19.48
2022-08-20T11:59:06.520Z,19.55
2022-08-20T12:00:06.507Z,19.51
2022-08-20T12:01:06.512Z,19.56
2022-08-20T12:02:11.664Z,19.56
2022-08-20T12:03:09.446Z,19.55
2022-08-20T12:04:06.459Z,19.56
2022-08-20T12:05:06.447Z,19.59
2022-08-20T12:06:06.440Z,19.65
2022-08-20T12:07:06.457Z,19.71
2022-08-20T12:08:06.431Z,19.68
2022-08-20T12:09:06.398Z,19.74
2022-08-20T12:10:06.396Z,19.77
2022-08-20T12:11:06.377Z,19.74
2022-08-20T12:12:06.387Z,19.73
2022-08-20T12:13:06.379Z,19.78
2022-08-20T12:14:06.351Z,19.77
2022-08-20T12:15:06.331Z,19.80
2022-08-20T12:16:06.338Z,19.76
2022-08-20T12:17:06.315Z,19.71
2022-08-20T12:18:06.317Z,19.71
2022-08-20T12:19:06.297Z,19.74
2022-08-20T12:20:06.298Z,19.77
2022-08-20T12:21:06.278Z,19.91
2022-08-20T12:22:20.445Z,19.92
2022-08-20T12:23:07.246Z,19.86
2022-08-20T12:24:06.231Z,19.86
2022-08-20T12:25:06.236Z,19.94
2022-08-20T12:26:06.261Z,19.94
2022-08-20T12:27:06.213Z,19.98
2022-08-20T12:28:06.186Z,19.95
2022-08-20T12:29:06.214Z,20.01
2022-08-20T12:30:06.169Z,19.98
2022-08-20T12:31:06.162Z,20.05
2022-08-20T12:32:06.144Z,20.06
2022-08-20T12:33:06.153Z,20.03
2022-08-20T12:34:06.155Z,20.03
2022-08-20T12:35:06.111Z,19.94
2022-08-20T12:36:06.110Z,20.06
2022-08-20T12:37:06.115Z,20.06
2022-08-20T12:38:06.079Z,20.02
2022-08-20T12:39:06.082Z,20.10
2022-08-20T12:40:06.160Z,20.10
2022-08-20T12:41:06.046Z,20.08
2022-08-20T12:42:06.067Z,20.05
2022-08-20T12:43:06.017Z,20.13
2022-08-20T12:44:06.009Z,20.20
2022-08-20T12:45:06.020Z,20.16
2022-08-20T12:46:06.026Z,20.26
2022-08-20T12:47:05.981Z,20.28
2022-08-20T12:48:05.982Z,20.29
2022-08-20T12:49:05.949Z,20.28
2022-08-20T12:50:05.992Z,20.18
2022-08-20T12:51:05.934Z,20.35
2022-08-20T12:52:05.918Z,20.31